Pacific Valley, California
Current Conditions -  °F | °C
As of 12:54 PM on Tuesday 25 Nov 2014 (Local Time) from KMRY Reporting Station
Clear Clear  
Wind Chill: 69°   Ceiling: Unl
Heat Index: 69°   Visibility: 10mi
Dew Point: 38°   Wind: 3mph
Humidity: 32%   Direction: NA
Pressure: 30.37"   Gusts: NA
Location:  36.2518°N, 121.704°W
Report Text: KMRY 252054Z VRB03KT 10SM CLR 21/03 A3037 RMK AO2 SLP297 T02060033 56012
Loading
Personal Weather Stations






























Interactive Weather Map New forecast layout! Learn more

10-Day Weather Forecast

Advertisements
Track Severe Weather on mobile